Flat Lick, KY (40935)

1:17 PM EDT on September 30, 2014 (GMT -0400)
liford's | Change Station
CLOSE
Current Station
Personal Weather Station
Location: Barbourville, KY
Elevation: 1066 ft
Nearby Weather Stations

Elev 1066 ft 36.84 °N, 83.85 °W | Updated 14 minutes ago

Clear
Clear
82.0 °F
Feels Like 81 °F
N
3.7
Wind Variable Wind from SE

Today
High -- | Low -- °F
--% Chance of Precip.
Yesterday
High -- | Low -- °F
Precip. -- in
7:29 AM 7:19 PM
Waxing Crescent, 38% visible
Pressure 29.98 in
Visibility 10.0 miles
Clouds Scattered Clouds 5000 ft
Heat Index 81 °F
Dew Point 55 °F
Humidity 40%
Rainfall 0.00 in
Snow Depth Not available.
UV 6 out of 12
Pollen 4.20 out of 12
Air Quality Not available.
Flu Activity Not available.
METAR K1A6 301655Z AUTO 17003KT 10SM SCT050 24/18 A2998 RMK AO2 T02400176

More Conditions Fewer Conditions

Pressure 29.98 in
Visibility 10.0 miles
Clouds Scattered Clouds 5000 ft
Heat Index 81 °F
Dew Point 55 °F
Humidity 40%
Rainfall 0.00 in
Snow Depth Not available.
UV 6 out of 12
Pollen 4.20 out of 12
Air Quality Not available.
Flu Activity Not available.
METAR K1A6 301655Z AUTO 17003KT 10SM SCT050 24/18 A2998 RMK AO2 T02400176

More Conditions Fewer Conditions

10-Day Weather Forecast

Almanac

Astronomy

Sep. 30, 2014 Rise Set
Actual Time 7:29 AM EDT 7:19 PM EDT
Civil Twilight 7:03 AM EDT 7:45 PM EDT
Nautical Twilight 6:33 AM EDT 8:15 PM EDT
Astronomical Twilight 6:03 AM EDT 8:45 PM EDT
Moon 1:29 PM EDT 11:55 PM EDT
Length of Visible Light 12h 42m
Length of Day
11h 50m
Tomorrow will be 2m 19s shorter.
Waxing Crescent, 38% of the Moon is Illuminated
Today
Waxing Crescent
Oct 1
First Quarter
Oct 8
Full
Oct 15
Last Quarter
Oct 23
New

Today's Extremes

State Highs State Lows

Community

WunderPhotos

Upload Photos

1,757,688 photos uploaded!

Nearby

Snow Depth

Station Depth Elevation
No new snow has been reported.

Earthquake Activity

City Distance Mag. Time & Date
No recent earthquake activity has been reported nearby.
Minimum magnitude displayed is 2.5.

Coastal Water Temperatures

Place Temperature
No Stations Reporting

Nearby Weather Stations